sensor_id;sensor_type;location;lat;lon;timestamp;temperature;humidity
70820;DHT22;58439;51.046;13.692;2022-11-20T00:31:37;-4.20;97.10
70820;DHT22;58439;51.046;13.692;2022-11-20T00:40:09;-4.10;97.00
70820;DHT22;58439;51.046;13.692;2022-11-20T01:07:49;-4.30;96.40
70820;DHT22;58439;51.046;13.692;2022-11-20T01:10:16;-4.10;97.80
70820;DHT22;58439;51.046;13.692;2022-11-20T01:12:44;-4.00;97.80
70820;DHT22;58439;51.046;13.692;2022-11-20T01:15:33;-4.10;96.80
70820;DHT22;58439;51.046;13.692;2022-11-20T01:18:00;-4.20;96.30
70820;DHT22;58439;51.046;13.692;2022-11-20T01:20:27;-4.20;96.40
70820;DHT22;58439;51.046;13.692;2022-11-20T01:22:55;-4.30;96.30
70820;DHT22;58439;51.046;13.692;2022-11-20T01:25:22;-4.30;96.60
70820;DHT22;58439;51.046;13.692;2022-11-20T01:27:50;-4.40;96.60
70820;DHT22;58439;51.046;13.692;2022-11-20T01:30:17;-4.50;96.60
70820;DHT22;58439;51.046;13.692;2022-11-20T01:32:44;-4.50;96.90
70820;DHT22;58439;51.046;13.692;2022-11-20T01:35:11;-4.50;97.00
70820;DHT22;58439;51.046;13.692;2022-11-20T01:37:38;-4.50;97.20
70820;DHT22;58439;51.046;13.692;2022-11-20T01:40:06;-4.50;97.00
70820;DHT22;58439;51.046;13.692;2022-11-20T01:42:33;-4.50;96.90
70820;DHT22;58439;51.046;13.692;2022-11-20T01:45:46;-4.50;96.90
70820;DHT22;58439;51.046;13.692;2022-11-20T01:48:22;-4.50;97.00
70820;DHT22;58439;51.046;13.692;2022-11-20T01:50:53;-4.50;97.00
70820;DHT22;58439;51.046;13.692;2022-11-20T01:53:24;-4.50;96.70
70820;DHT22;58439;51.046;13.692;2022-11-20T01:55:57;-4.50;96.60
70820;DHT22;58439;51.046;13.692;2022-11-20T01:58:32;-4.60;96.60
70820;DHT22;58439;51.046;13.692;2022-11-20T02:01:03;-4.60;96.60
70820;DHT22;58439;51.046;13.692;2022-11-20T02:03:31;-4.60;96.80
70820;DHT22;58439;51.046;13.692;2022-11-20T02:08:41;-4.60;97.20
70820;DHT22;58439;51.046;13.692;2022-11-20T02:11:08;-4.60;97.30
70820;DHT22;58439;51.046;13.692;2022-11-20T02:13:37;-4.60;97.10
70820;DHT22;58439;51.046;13.692;2022-11-20T02:18:54;-4.50;96.80
70820;DHT22;58439;51.046;13.692;2022-11-20T02:24:17;-4.60;96.40
70820;DHT22;58439;51.046;13.692;2022-11-20T02:26:53;-4.60;96.10
70820;DHT22;58439;51.046;13.692;2022-11-20T02:38:00;-4.70;96.30
70820;DHT22;58439;51.046;13.692;2022-11-20T02:42:30;-4.70;96.10
70820;DHT22;58439;51.046;13.692;2022-11-20T02:52:57;-4.70;95.70
70820;DHT22;58439;51.046;13.692;2022-11-20T02:55:34;-4.70;95.50
70820;DHT22;58439;51.046;13.692;2022-11-20T02:58:02;-4.70;95.50
70820;DHT22;58439;51.046;13.692;2022-11-20T03:00:29;-4.80;95.40
70820;DHT22;58439;51.046;13.692;2022-11-20T03:02:57;-4.70;95.50
70820;DHT22;58439;51.046;13.692;2022-11-20T03:05:24;-4.80;95.50
70820;DHT22;58439;51.046;13.692;2022-11-20T03:07:51;-4.80;95.90
70820;DHT22;58439;51.046;13.692;2022-11-20T03:10:18;-4.80;95.50
70820;DHT22;58439;51.046;13.692;2022-11-20T03:12:47;-4.80;95.50
70820;DHT22;58439;51.046;13.692;2022-11-20T03:15:14;-4.80;95.40
70820;DHT22;58439;51.046;13.692;2022-11-20T03:17:41;-4.80;95.40
70820;DHT22;58439;51.046;13.692;2022-11-20T03:20:10;-4.90;95.50
70820;DHT22;58439;51.046;13.692;2022-11-20T03:22:38;-4.80;95.50
70820;DHT22;58439;51.046;13.692;2022-11-20T03:25:05;-4.90;95.50
70820;DHT22;58439;51.046;13.692;2022-11-20T03:27:34;-4.80;95.50
70820;DHT22;58439;51.046;13.692;2022-11-20T03:30:01;-4.80;95.60
70820;DHT22;58439;51.046;13.692;2022-11-20T03:32:30;-4.80;95.60
70820;DHT22;58439;51.046;13.692;2022-11-20T03:34:57;-4.80;95.70
70820;DHT22;58439;51.046;13.692;2022-11-20T03:37:25;-4.80;95.70
70820;DHT22;58439;51.046;13.692;2022-11-20T03:39:53;-4.80;95.70
70820;DHT22;58439;51.046;13.692;2022-11-20T03:42:20;-4.90;95.70
70820;DHT22;58439;51.046;13.692;2022-11-20T03:45:07;-4.90;95.70
70820;DHT22;58439;51.046;13.692;2022-11-20T03:47:35;-4.90;95.70
70820;DHT22;58439;51.046;13.692;2022-11-20T03:50:03;-4.90;95.60
70820;DHT22;58439;51.046;13.692;2022-11-20T03:53:00;-4.90;95.60
70820;DHT22;58439;51.046;13.692;2022-11-20T03:55:53;-4.90;95.70
70820;DHT22;58439;51.046;13.692;2022-11-20T03:58:20;-4.90;95.70
70820;DHT22;58439;51.046;13.692;2022-11-20T04:00:48;-4.90;95.80
70820;DHT22;58439;51.046;13.692;2022-11-20T04:03:15;-4.90;95.70
70820;DHT22;58439;51.046;13.692;2022-11-20T04:05:42;-4.90;95.40
70820;DHT22;58439;51.046;13.692;2022-11-20T04:11:31;-5.10;95.50
70820;DHT22;58439;51.046;13.692;2022-11-20T04:14:04;-5.10;95.90
70820;DHT22;58439;51.046;13.692;2022-11-20T04:16:35;-5.10;96.10
70820;DHT22;58439;51.046;13.692;2022-11-20T04:19:05;-5.20;96.30
70820;DHT22;58439;51.046;13.692;2022-11-20T04:21:36;-5.20;96.50
70820;DHT22;58439;51.046;13.692;2022-11-20T04:24:03;-5.20;96.50
70820;DHT22;58439;51.046;13.692;2022-11-20T04:32:11;-5.10;96.40
70820;DHT22;58439;51.046;13.692;2022-11-20T04:34:39;-5.10;96.10
70820;DHT22;58439;51.046;13.692;2022-11-20T04:37:06;-5.10;96.00
70820;DHT22;58439;51.046;13.692;2022-11-20T04:39:33;-5.10;95.90
70820;DHT22;58439;51.046;13.692;2022-11-20T04:42:01;-5.20;95.80
70820;DHT22;58439;51.046;13.692;2022-11-20T04:44:46;-5.20;95.70
70820;DHT22;58439;51.046;13.692;2022-11-20T04:47:13;-5.20;95.70
70820;DHT22;58439;51.046;13.692;2022-11-20T04:50:41;-5.20;95.70
70820;DHT22;58439;51.046;13.692;2022-11-20T04:53:09;-5.20;95.70
70820;DHT22;58439;51.046;13.692;2022-11-20T04:55:36;-5.20;95.60
70820;DHT22;58439;51.046;13.692;2022-11-20T04:58:03;-5.20;95.60
70820;DHT22;58439;51.046;13.692;2022-11-20T05:00:30;-5.20;95.60
70820;DHT22;58439;51.046;13.692;2022-11-20T05:02:58;-5.20;95.50
70820;DHT22;58439;51.046;13.692;2022-11-20T05:05:25;-5.20;95.50
70820;DHT22;58439;51.046;13.692;2022-11-20T05:07:52;-5.30;95.30
70820;DHT22;58439;51.046;13.692;2022-11-20T05:10:22;-5.30;95.40
70820;DHT22;58439;51.046;13.692;2022-11-20T05:12:49;-5.30;95.50
70820;DHT22;58439;51.046;13.692;2022-11-20T05:15:17;-5.30;95.40
70820;DHT22;58439;51.046;13.692;2022-11-20T05:18:06;-5.30;95.50
70820;DHT22;58439;51.046;13.692;2022-11-20T05:20:34;-5.30;95.40
70820;DHT22;58439;51.046;13.692;2022-11-20T05:23:03;-5.30;95.30
70820;DHT22;58439;51.046;13.692;2022-11-20T05:25:30;-5.30;95.30
70820;DHT22;58439;51.046;13.692;2022-11-20T05:27:58;-5.40;95.40
70820;DHT22;58439;51.046;13.692;2022-11-20T05:30:25;-5.40;95.80
70820;DHT22;58439;51.046;13.692;2022-11-20T05:32:52;-5.40;96.00
70820;DHT22;58439;51.046;13.692;2022-11-20T05:35:20;-5.40;95.90
70820;DHT22;58439;51.046;13.692;2022-11-20T05:37:47;-5.40;95.70
70820;DHT22;58439;51.046;13.692;2022-11-20T05:40:15;-5.40;95.60
70820;DHT22;58439;51.046;13.692;2022-11-20T05:42:45;-5.50;95.70
70820;DHT22;58439;51.046;13.692;2022-11-20T05:45:12;-5.50;96.10
70820;DHT22;58439;51.046;13.692;2022-11-20T05:47:39;-5.50;96.30
70820;DHT22;58439;51.046;13.692;2022-11-20T05:50:06;-5.50;96.30
70820;DHT22;58439;51.046;13.692;2022-11-20T05:52:34;-5.50;96.40
70820;DHT22;58439;51.046;13.692;2022-11-20T05:55:02;-5.40;96.00
70820;DHT22;58439;51.046;13.692;2022-11-20T05:57:36;-5.40;95.90
70820;DHT22;58439;51.046;13.692;2022-11-20T06:00:04;-5.40;95.90
70820;DHT22;58439;51.046;13.692;2022-11-20T06:02:34;-5.40;95.70
70820;DHT22;58439;51.046;13.692;2022-11-20T06:05:20;-5.40;95.60
70820;DHT22;58439;51.046;13.692;2022-11-20T06:07:48;-5.40;95.40
70820;DHT22;58439;51.046;13.692;2022-11-20T06:10:15;-5.40;95.40
70820;DHT22;58439;51.046;13.692;2022-11-20T06:12:42;-5.40;95.40
70820;DHT22;58439;51.046;13.692;2022-11-20T06:15:09;-5.50;95.40
70820;DHT22;58439;51.046;13.692;2022-11-20T06:17:53;-5.50;95.40
70820;DHT22;58439;51.046;13.692;2022-11-20T06:20:22;-5.50;95.30
70820;DHT22;58439;51.046;13.692;2022-11-20T06:22:49;-5.50;95.20
70820;DHT22;58439;51.046;13.692;2022-11-20T06:25:16;-5.60;95.20
70820;DHT22;58439;51.046;13.692;2022-11-20T06:27:43;-5.60;95.50
70820;DHT22;58439;51.046;13.692;2022-11-20T06:30:10;-5.60;96.00
70820;DHT22;58439;51.046;13.692;2022-11-20T06:32:38;-5.60;96.00
70820;DHT22;58439;51.046;13.692;2022-11-20T06:35:05;-5.50;95.90
70820;DHT22;58439;51.046;13.692;2022-11-20T06:37:33;-5.50;95.70
70820;DHT22;58439;51.046;13.692;2022-11-20T06:40:00;-5.50;95.70
70820;DHT22;58439;51.046;13.692;2022-11-20T06:42:27;-5.50;95.50
70820;DHT22;58439;51.046;13.692;2022-11-20T06:44:54;-5.50;95.50
70820;DHT22;58439;51.046;13.692;2022-11-20T06:47:21;-5.50;95.40
70820;DHT22;58439;51.046;13.692;2022-11-20T06:49:48;-5.50;95.30
70820;DHT22;58439;51.046;13.692;2022-11-20T06:52:15;-5.50;95.20
70820;DHT22;58439;51.046;13.692;2022-11-20T06:54:42;-5.50;95.20
70820;DHT22;58439;51.046;13.692;2022-11-20T06:57:10;-5.50;95.20
70820;DHT22;58439;51.046;13.692;2022-11-20T06:59:37;-5.50;95.20
70820;DHT22;58439;51.046;13.692;2022-11-20T07:02:04;-5.40;95.30
70820;DHT22;58439;51.046;13.692;2022-11-20T07:04:31;-5.40;95.20
70820;DHT22;58439;51.046;13.692;2022-11-20T07:06:58;-5.30;95.10
70820;DHT22;58439;51.046;13.692;2022-11-20T07:09:25;-5.30;95.00
70820;DHT22;58439;51.046;13.692;2022-11-20T07:11:53;-5.20;95.00
70820;DHT22;58439;51.046;13.692;2022-11-20T07:14:20;-5.20;95.00
70820;DHT22;58439;51.046;13.692;2022-11-20T07:16:47;-5.20;95.00
70820;DHT22;58439;51.046;13.692;2022-11-20T07:19:14;-5.20;95.00
70820;DHT22;58439;51.046;13.692;2022-11-20T07:21:41;-5.10;95.10
70820;DHT22;58439;51.046;13.692;2022-11-20T07:24:08;-5.00;95.20
70820;DHT22;58439;51.046;13.692;2022-11-20T07:26:36;-4.90;95.20
70820;DHT22;58439;51.046;13.692;2022-11-20T07:29:03;-4.80;95.00
70820;DHT22;58439;51.046;13.692;2022-11-20T07:31:34;-4.80;94.70
70820;DHT22;58439;51.046;13.692;2022-11-20T07:34:01;-4.70;94.60
70820;DHT22;58439;51.046;13.692;2022-11-20T07:36:29;-4.70;94.40
70820;DHT22;58439;51.046;13.692;2022-11-20T07:38:56;-4.60;94.50
70820;DHT22;58439;51.046;13.692;2022-11-20T07:41:23;-4.60;94.20
70820;DHT22;58439;51.046;13.692;2022-11-20T07:43:51;-4.50;94.30
70820;DHT22;58439;51.046;13.692;2022-11-20T07:46:18;-4.50;94.30
70820;DHT22;58439;51.046;13.692;2022-11-20T07:48:45;-4.40;94.50
70820;DHT22;58439;51.046;13.692;2022-11-20T07:51:12;-4.30;94.40
70820;DHT22;58439;51.046;13.692;2022-11-20T07:53:40;-4.20;94.00
70820;DHT22;58439;51.046;13.692;2022-11-20T07:56:07;-4.10;93.80
70820;DHT22;58439;51.046;13.692;2022-11-20T07:58:34;-4.00;93.60
70820;DHT22;58439;51.046;13.692;2022-11-20T08:01:06;-4.00;93.50
70820;DHT22;58439;51.046;13.692;2022-11-20T08:03:34;-3.90;93.50
70820;DHT22;58439;51.046;13.692;2022-11-20T08:06:04;-3.90;93.70
70820;DHT22;58439;51.046;13.692;2022-11-20T08:08:32;-3.80;93.70
70820;DHT22;58439;51.046;13.692;2022-11-20T08:11:08;-3.70;93.40
70820;DHT22;58439;51.046;13.692;2022-11-20T08:14:05;-3.60;93.30
70820;DHT22;58439;51.046;13.692;2022-11-20T08:17:04;-3.50;93.20
70820;DHT22;58439;51.046;13.692;2022-11-20T08:19:58;-3.30;92.80
70820;DHT22;58439;51.046;13.692;2022-11-20T08:23:17;-3.30;92.20
70820;DHT22;58439;51.046;13.692;2022-11-20T08:26:33;-3.20;91.90
70820;DHT22;58439;51.046;13.692;2022-11-20T08:29:01;-3.10;92.10
70820;DHT22;58439;51.046;13.692;2022-11-20T08:31:30;-3.00;91.80
70820;DHT22;58439;51.046;13.692;2022-11-20T08:33:57;-2.90;91.80
70820;DHT22;58439;51.046;13.692;2022-11-20T08:36:25;-2.80;92.00
70820;DHT22;58439;51.046;13.692;2022-11-20T08:38:54;-2.70;91.30
70820;DHT22;58439;51.046;13.692;2022-11-20T08:41:22;-2.70;91.30
70820;DHT22;58439;51.046;13.692;2022-11-20T08:44:02;-2.60;91.10
70820;DHT22;58439;51.046;13.692;2022-11-20T08:46:36;-2.50;91.20
70820;DHT22;58439;51.046;13.692;2022-11-20T08:49:06;-2.40;91.20
70820;DHT22;58439;51.046;13.692;2022-11-20T08:51:36;-2.30;91.00
70820;DHT22;58439;51.046;13.692;2022-11-20T08:54:04;-2.20;91.40
70820;DHT22;58439;51.046;13.692;2022-11-20T08:56:35;-2.10;90.90
70820;DHT22;58439;51.046;13.692;2022-11-20T08:59:02;-2.00;90.40
70820;DHT22;58439;51.046;13.692;2022-11-20T09:01:49;-2.00;90.40
70820;DHT22;58439;51.046;13.692;2022-11-20T09:04:20;-1.80;90.80
70820;DHT22;58439;51.046;13.692;2022-11-20T09:06:48;-1.70;90.40
70820;DHT22;58439;51.046;13.692;2022-11-20T09:09:18;-1.70;88.40
70820;DHT22;58439;51.046;13.692;2022-11-20T09:11:46;-1.70;88.10
70820;DHT22;58439;51.046;13.692;2022-11-20T09:14:13;-1.60;90.20
70820;DHT22;58439;51.046;13.692;2022-11-20T09:16:40;-1.40;89.00
70820;DHT22;58439;51.046;13.692;2022-11-20T09:19:07;-1.40;88.80
70820;DHT22;58439;51.046;13.692;2022-11-20T09:21:55;-1.30;88.90
70820;DHT22;58439;51.046;13.692;2022-11-20T09:24:26;-1.20;88.70
70820;DHT22;58439;51.046;13.692;2022-11-20T09:26:54;-1.10;87.20
70820;DHT22;58439;51.046;13.692;2022-11-20T09:29:21;-1.10;86.30
70820;DHT22;58439;51.046;13.692;2022-11-20T09:31:49;-1.10;86.70
70820;DHT22;58439;51.046;13.692;2022-11-20T09:34:16;-1.10;87.30
70820;DHT22;58439;51.046;13.692;2022-11-20T09:36:43;-1.00;86.50
70820;DHT22;58439;51.046;13.692;2022-11-20T09:39:11;-0.90;85.40
70820;DHT22;58439;51.046;13.692;2022-11-20T09:47:33;-0.70;85.40
70820;DHT22;58439;51.046;13.692;2022-11-20T09:55:54;-0.40;83.50
70820;DHT22;58439;51.046;13.692;2022-11-20T09:58:31;-0.30;82.90
70820;DHT22;58439;51.046;13.692;2022-11-20T10:01:12;-0.20;82.00
70820;DHT22;58439;51.046;13.692;2022-11-20T10:04:02;0.00;82.40
70820;DHT22;58439;51.046;13.692;2022-11-20T10:06:34;0.90;82.40
70820;DHT22;58439;51.046;13.692;2022-11-20T10:12:11;3.30;73.60
70820;DHT22;58439;51.046;13.692;2022-11-20T10:15:01;3.90;68.20
70820;DHT22;58439;51.046;13.692;2022-11-20T10:24:23;5.60;58.70
70820;DHT22;58439;51.046;13.692;2022-11-20T10:29:45;6.40;52.50
70820;DHT22;58439;51.046;13.692;2022-11-20T10:32:20;6.60;50.90
70820;DHT22;58439;51.046;13.692;2022-11-20T10:34:59;6.60;49.60
70820;DHT22;58439;51.046;13.692;2022-11-20T10:37:34;6.60;49.30
70820;DHT22;58439;51.046;13.692;2022-11-20T10:40:31;6.30;48.80
70820;DHT22;58439;51.046;13.692;2022-11-20T10:43:27;6.00;48.60
70820;DHT22;58439;51.046;13.692;2022-11-20T10:46:13;5.80;51.30
70820;DHT22;58439;51.046;13.692;2022-11-20T10:48:52;5.40;50.90
70820;DHT22;58439;51.046;13.692;2022-11-20T10:54:39;3.90;51.40
70820;DHT22;58439;51.046;13.692;2022-11-20T10:57:36;3.40;56.10
70820;DHT22;58439;51.046;13.692;2022-11-20T11:00:12;3.50;60.60
70820;DHT22;58439;51.046;13.692;2022-11-20T11:02:53;3.90;61.60
70820;DHT22;58439;51.046;13.692;2022-11-20T11:05:48;4.60;58.00
70820;DHT22;58439;51.046;13.692;2022-11-20T11:08:21;4.80;54.40
70820;DHT22;58439;51.046;13.692;2022-11-20T11:10:54;4.70;52.60
70820;DHT22;58439;51.046;13.692;2022-11-20T11:13:30;4.70;53.90
70820;DHT22;58439;51.046;13.692;2022-11-20T11:15:58;5.30;54.70
70820;DHT22;58439;51.046;13.692;2022-11-20T11:18:33;5.60;52.60
70820;DHT22;58439;51.046;13.692;2022-11-20T11:21:03;5.60;52.40
70820;DHT22;58439;51.046;13.692;2022-11-20T11:28:41;4.60;55.80
70820;DHT22;58439;51.046;13.692;2022-11-20T12:12:05;5.90;50.40
70820;DHT22;58439;51.046;13.692;2022-11-20T12:14:56;5.10;53.20
70820;DHT22;58439;51.046;13.692;2022-11-20T12:17:57;5.50;55.60
70820;DHT22;58439;51.046;13.692;2022-11-20T12:21:56;5.20;54.40
70820;DHT22;58439;51.046;13.692;2022-11-20T12:25:24;4.40;58.70
70820;DHT22;58439;51.046;13.692;2022-11-20T13:32:31;2.20;82.50
70820;DHT22;58439;51.046;13.692;2022-11-20T14:18:45;2.00;85.10
70820;DHT22;58439;51.046;13.692;2022-11-20T14:25:59;1.80;84.50
70820;DHT22;58439;51.046;13.692;2022-11-20T14:28:43;1.80;84.80
70820;DHT22;58439;51.046;13.692;2022-11-20T14:50:29;0.90;88.60
70820;DHT22;58439;51.046;13.692;2022-11-20T14:52:57;0.80;89.60
70820;DHT22;58439;51.046;13.692;2022-11-20T14:58:18;0.60;90.20
70820;DHT22;58439;51.046;13.692;2022-11-20T15:01:01;0.50;90.80
70820;DHT22;58439;51.046;13.692;2022-11-20T15:03:34;0.40;90.50
70820;DHT22;58439;51.046;13.692;2022-11-20T15:06:11;0.30;90.80
70820;DHT22;58439;51.046;13.692;2022-11-20T15:08:50;0.20;91.40
70820;DHT22;58439;51.046;13.692;2022-11-20T15:11:23;0.10;91.40
70820;DHT22;58439;51.046;13.692;2022-11-20T15:14:01;0.00;91.40
70820;DHT22;58439;51.046;13.692;2022-11-20T15:16:48;-0.10;91.60
70820;DHT22;58439;51.046;13.692;2022-11-20T15:19:22;-0.20;92.00
70820;DHT22;58439;51.046;13.692;2022-11-20T15:21:52;-0.30;92.10
70820;DHT22;58439;51.046;13.692;2022-11-20T15:24:20;-0.40;92.20
70820;DHT22;58439;51.046;13.692;2022-11-20T15:26:48;-0.50;92.80
70820;DHT22;58439;51.046;13.692;2022-11-20T15:29:20;-0.50;93.00
70820;DHT22;58439;51.046;13.692;2022-11-20T15:31:50;-0.50;93.00
70820;DHT22;58439;51.046;13.692;2022-11-20T15:34:19;-0.60;93.00
70820;DHT22;58439;51.046;13.692;2022-11-20T15:37:00;-0.60;93.20
70820;DHT22;58439;51.046;13.692;2022-11-20T15:39:27;-0.70;93.40
70820;DHT22;58439;51.046;13.692;2022-11-20T15:41:55;-0.70;93.30
70820;DHT22;58439;51.046;13.692;2022-11-20T15:44:22;-0.80;94.00
70820;DHT22;58439;51.046;13.692;2022-11-20T15:46:51;-0.80;94.30
70820;DHT22;58439;51.046;13.692;2022-11-20T15:49:18;-0.80;94.50
70820;DHT22;58439;51.046;13.692;2022-11-20T15:51:49;-0.80;93.90
70820;DHT22;58439;51.046;13.692;2022-11-20T15:54:19;-0.80;93.80
70820;DHT22;58439;51.046;13.692;2022-11-20T15:56:50;-0.80;93.70
70820;DHT22;58439;51.046;13.692;2022-11-20T15:59:21;-0.90;94.00
70820;DHT22;58439;51.046;13.692;2022-11-20T16:01:48;-0.90;94.00
70820;DHT22;58439;51.046;13.692;2022-11-20T16:04:16;-1.00;94.30
70820;DHT22;58439;51.046;13.692;2022-11-20T16:06:44;-1.00;94.50
70820;DHT22;58439;51.046;13.692;2022-11-20T16:09:11;-1.00;94.90
70820;DHT22;58439;51.046;13.692;2022-11-20T16:11:39;-1.00;94.90
70820;DHT22;58439;51.046;13.692;2022-11-20T16:14:09;-1.10;95.00
70820;DHT22;58439;51.046;13.692;2022-11-20T16:16:55;-1.10;95.20
70820;DHT22;58439;51.046;13.692;2022-11-20T16:19:23;-1.00;95.40
70820;DHT22;58439;51.046;13.692;2022-11-20T16:21:50;-1.00;96.00
70820;DHT22;58439;51.046;13.692;2022-11-20T16:24:18;-0.90;96.10
70820;DHT22;58439;51.046;13.692;2022-11-20T16:26:46;-0.90;96.10
70820;DHT22;58439;51.046;13.692;2022-11-20T16:29:13;-0.80;95.90
70820;DHT22;58439;51.046;13.692;2022-11-20T16:31:42;-0.80;95.90
70820;DHT22;58439;51.046;13.692;2022-11-20T16:34:09;-0.80;95.60
70820;DHT22;58439;51.046;13.692;2022-11-20T16:36:49;-0.90;95.50
70820;DHT22;58439;51.046;13.692;2022-11-20T16:39:16;-0.90;95.50
70820;DHT22;58439;51.046;13.692;2022-11-20T16:41:49;-0.90;95.80
70820;DHT22;58439;51.046;13.692;2022-11-20T16:44:17;-1.00;95.60
70820;DHT22;58439;51.046;13.692;2022-11-20T16:46:44;-1.00;95.70
70820;DHT22;58439;51.046;13.692;2022-11-20T16:49:12;-1.00;96.20
70820;DHT22;58439;51.046;13.692;2022-11-20T16:51:46;-1.00;96.00
70820;DHT22;58439;51.046;13.692;2022-11-20T16:54:14;-1.10;95.80
70820;DHT22;58439;51.046;13.692;2022-11-20T16:56:56;-1.20;95.70
70820;DHT22;58439;51.046;13.692;2022-11-20T16:59:25;-1.20;95.80
70820;DHT22;58439;51.046;13.692;2022-11-20T17:01:52;-1.30;95.90
70820;DHT22;58439;51.046;13.692;2022-11-20T17:04:19;-1.40;95.70
70820;DHT22;58439;51.046;13.692;2022-11-20T17:06:48;-1.50;95.80
70820;DHT22;58439;51.046;13.692;2022-11-20T17:09:16;-1.50;96.20
70820;DHT22;58439;51.046;13.692;2022-11-20T17:11:43;-1.60;96.40
70820;DHT22;58439;51.046;13.692;2022-11-20T17:14:11;-1.60;96.50
70820;DHT22;58439;51.046;13.692;2022-11-20T17:16:39;-1.70;96.60
70820;DHT22;58439;51.046;13.692;2022-11-20T17:19:08;-1.70;96.80
70820;DHT22;58439;51.046;13.692;2022-11-20T17:21:36;-1.70;96.90
70820;DHT22;58439;51.046;13.692;2022-11-20T17:24:06;-1.70;97.30
70820;DHT22;58439;51.046;13.692;2022-11-20T17:26:37;-1.70;97.20
70820;DHT22;58439;51.046;13.692;2022-11-20T17:29:11;-1.80;97.40
70820;DHT22;58439;51.046;13.692;2022-11-20T17:31:40;-1.80;97.30
70820;DHT22;58439;51.046;13.692;2022-11-20T17:34:13;-1.80;97.20
70820;DHT22;58439;51.046;13.692;2022-11-20T17:36:46;-1.90;97.00
70820;DHT22;58439;51.046;13.692;2022-11-20T17:39:14;-1.90;97.10
70820;DHT22;58439;51.046;13.692;2022-11-20T17:41:44;-2.00;97.10
70820;DHT22;58439;51.046;13.692;2022-11-20T17:44:32;-2.00;97.20
70820;DHT22;58439;51.046;13.692;2022-11-20T17:47:00;-2.00;97.60
70820;DHT22;58439;51.046;13.692;2022-11-20T17:49:28;-2.00;97.70
70820;DHT22;58439;51.046;13.692;2022-11-20T17:51:57;-2.00;97.70
70820;DHT22;58439;51.046;13.692;2022-11-20T17:54:25;-2.00;97.70
70820;DHT22;58439;51.046;13.692;2022-11-20T17:57:09;-2.00;97.70
70820;DHT22;58439;51.046;13.692;2022-11-20T18:00:11;-2.00;98.40
70820;DHT22;58439;51.046;13.692;2022-11-20T18:02:39;-1.90;98.90
70820;DHT22;58439;51.046;13.692;2022-11-20T18:05:07;-1.80;98.60
70820;DHT22;58439;51.046;13.692;2022-11-20T18:07:35;-1.70;98.70
70820;DHT22;58439;51.046;13.692;2022-11-20T18:10:08;-1.70;97.60
70820;DHT22;58439;51.046;13.692;2022-11-20T18:12:38;-1.70;97.40
70820;DHT22;58439;51.046;13.692;2022-11-20T18:15:05;-1.70;97.20
70820;DHT22;58439;51.046;13.692;2022-11-20T18:17:33;-1.80;96.80
70820;DHT22;58439;51.046;13.692;2022-11-20T18:20:02;-1.90;96.90
70820;DHT22;58439;51.046;13.692;2022-11-20T18:22:50;-1.90;97.20
70820;DHT22;58439;51.046;13.692;2022-11-20T18:25:18;-2.00;97.40
70820;DHT22;58439;51.046;13.692;2022-11-20T18:27:49;-2.00;97.50
70820;DHT22;58439;51.046;13.692;2022-11-20T18:30:17;-2.00;97.80
70820;DHT22;58439;51.046;13.692;2022-11-20T18:32:46;-2.00;98.10
70820;DHT22;58439;51.046;13.692;2022-11-20T18:35:14;-2.10;98.10
70820;DHT22;58439;51.046;13.692;2022-11-20T18:37:42;-2.10;98.10
70820;DHT22;58439;51.046;13.692;2022-11-20T18:40:09;-2.10;98.40
70820;DHT22;58439;51.046;13.692;2022-11-20T18:42:40;-2.10;99.00
70820;DHT22;58439;51.046;13.692;2022-11-20T18:45:26;-2.00;99.70
70820;DHT22;58439;51.046;13.692;2022-11-20T18:47:54;-1.80;99.90
70820;DHT22;58439;51.046;13.692;2022-11-20T18:50:23;-1.70;99.80
70820;DHT22;58439;51.046;13.692;2022-11-20T18:52:50;-1.70;99.00
70820;DHT22;58439;51.046;13.692;2022-11-20T18:55:18;-1.80;98.40
70820;DHT22;58439;51.046;13.692;2022-11-20T18:57:46;-1.90;98.40
70820;DHT22;58439;51.046;13.692;2022-11-20T19:00:13;-2.00;98.40
70820;DHT22;58439;51.046;13.692;2022-11-20T19:02:41;-2.10;98.30
70820;DHT22;58439;51.046;13.692;2022-11-20T19:05:10;-2.20;98.50
70820;DHT22;58439;51.046;13.692;2022-11-20T19:07:40;-2.20;98.80
70820;DHT22;58439;51.046;13.692;2022-11-20T19:10:08;-2.20;99.00
70820;DHT22;58439;51.046;13.692;2022-11-20T19:12:45;-2.30;99.20
70820;DHT22;58439;51.046;13.692;2022-11-20T19:15:15;-2.30;99.20
70820;DHT22;58439;51.046;13.692;2022-11-20T19:17:42;-2.30;99.50
70820;DHT22;58439;51.046;13.692;2022-11-20T19:20:09;-2.30;99.70
70820;DHT22;58439;51.046;13.692;2022-11-20T19:22:37;-2.30;99.90
70820;DHT22;58439;51.046;13.692;2022-11-20T19:28:18;-2.30;99.40
70820;DHT22;58439;51.046;13.692;2022-11-20T19:30:46;-2.30;99.70
70820;DHT22;58439;51.046;13.692;2022-11-20T19:33:14;-2.20;99.90
70820;DHT22;58439;51.046;13.692;2022-11-20T19:35:43;-2.10;99.90
70820;DHT22;58439;51.046;13.692;2022-11-20T19:38:10;-2.00;99.90
70820;DHT22;58439;51.046;13.692;2022-11-20T19:40:38;-1.90;99.90
70820;DHT22;58439;51.046;13.692;2022-11-20T19:43:05;-1.90;99.70
70820;DHT22;58439;51.046;13.692;2022-11-20T19:45:33;-1.90;99.40
70820;DHT22;58439;51.046;13.692;2022-11-20T19:48:00;-2.00;99.00
70820;DHT22;58439;51.046;13.692;2022-11-20T19:50:35;-2.00;99.00
70820;DHT22;58439;51.046;13.692;2022-11-20T19:53:02;-2.00;99.00
70820;DHT22;58439;51.046;13.692;2022-11-20T19:55:31;-2.10;99.00
70820;DHT22;58439;51.046;13.692;2022-11-20T19:58:06;-2.10;99.00
70820;DHT22;58439;51.046;13.692;2022-11-20T20:00:34;-2.10;99.20
70820;DHT22;58439;51.046;13.692;2022-11-20T20:03:02;-2.20;99.60
70820;DHT22;58439;51.046;13.692;2022-11-20T20:05:33;-2.10;99.90
70820;DHT22;58439;51.046;13.692;2022-11-20T20:08:01;-2.20;99.90
70820;DHT22;58439;51.046;13.692;2022-11-20T20:10:29;-2.10;99.90
70820;DHT22;58439;51.046;13.692;2022-11-20T20:12:58;-2.10;99.90
70820;DHT22;58439;51.046;13.692;2022-11-20T20:15:25;-2.00;99.90
70820;DHT22;58439;51.046;13.692;2022-11-20T20:17:53;-2.00;99.90
70820;DHT22;58439;51.046;13.692;2022-11-20T20:20:22;-1.80;99.90
70820;DHT22;58439;51.046;13.692;2022-11-20T20:22:50;-1.80;99.90
70820;DHT22;58439;51.046;13.692;2022-11-20T20:25:18;-1.70;99.90
70820;DHT22;58439;51.046;13.692;2022-11-20T20:27:46;-1.70;99.90
70820;DHT22;58439;51.046;13.692;2022-11-20T20:30:14;-1.60;99.90
70820;DHT22;58439;51.046;13.692;2022-11-20T20:32:41;-1.50;99.90
70820;DHT22;58439;51.046;13.692;2022-11-20T20:35:09;-1.40;99.90
70820;DHT22;58439;51.046;13.692;2022-11-20T20:37:36;-1.40;99.90
70820;DHT22;58439;51.046;13.692;2022-11-20T20:40:04;-1.30;99.70
70820;DHT22;58439;51.046;13.692;2022-11-20T20:42:39;-1.30;99.50
70820;DHT22;58439;51.046;13.692;2022-11-20T20:45:07;-1.20;99.30
70820;DHT22;58439;51.046;13.692;2022-11-20T20:47:38;-1.20;99.20
70820;DHT22;58439;51.046;13.692;2022-11-20T20:50:10;-1.20;99.20
70820;DHT22;58439;51.046;13.692;2022-11-20T20:52:38;-1.20;99.10
70820;DHT22;58439;51.046;13.692;2022-11-20T20:55:08;-1.10;99.00